sensor_id;sensor_type;location;lat;lon;timestamp;P1;durP1;ratioP1;P2;durP2;ratioP2
10535;SDS011;5316;49.538;8.352;2022-12-18T00:00:27;67.10;;;30.63;;
10535;SDS011;5316;49.538;8.352;2022-12-18T00:02:55;69.27;;;31.83;;
10535;SDS011;5316;49.538;8.352;2022-12-18T00:05:26;66.13;;;30.80;;
10535;SDS011;5316;49.538;8.352;2022-12-18T00:08:06;66.13;;;30.20;;
10535;SDS011;5316;49.538;8.352;2022-12-18T00:10:40;61.97;;;30.47;;
10535;SDS011;5316;49.538;8.352;2022-12-18T00:13:13;62.77;;;30.40;;
10535;SDS011;5316;49.538;8.352;2022-12-18T00:15:47;66.97;;;30.67;;
10535;SDS011;5316;49.538;8.352;2022-12-18T00:18:18;66.83;;;31.87;;
10535;SDS011;5316;49.538;8.352;2022-12-18T00:20:47;65.10;;;31.27;;
10535;SDS011;5316;49.538;8.352;2022-12-18T00:23:22;60.23;;;30.80;;
10535;SDS011;5316;49.538;8.352;2022-12-18T00:25:53;61.87;;;30.53;;
10535;SDS011;5316;49.538;8.352;2022-12-18T00:28:20;63.57;;;32.43;;
10535;SDS011;5316;49.538;8.352;2022-12-18T00:30:52;75.20;;;35.83;;
10535;SDS011;5316;49.538;8.352;2022-12-18T00:33:26;72.50;;;33.37;;
10535;SDS011;5316;49.538;8.352;2022-12-18T00:36:00;64.70;;;31.50;;
10535;SDS011;5316;49.538;8.352;2022-12-18T00:38:28;66.03;;;31.80;;
10535;SDS011;5316;49.538;8.352;2022-12-18T00:40:58;63.50;;;30.93;;
10535;SDS011;5316;49.538;8.352;2022-12-18T00:43:31;62.47;;;30.27;;
10535;SDS011;5316;49.538;8.352;2022-12-18T00:46:02;59.47;;;29.67;;
10535;SDS011;5316;49.538;8.352;2022-12-18T00:48:37;61.10;;;29.83;;
10535;SDS011;5316;49.538;8.352;2022-12-18T00:51:04;57.83;;;28.83;;
10535;SDS011;5316;49.538;8.352;2022-12-18T00:53:33;54.80;;;27.87;;
10535;SDS011;5316;49.538;8.352;2022-12-18T01:11:27;59.50;;;30.40;;
10535;SDS011;5316;49.538;8.352;2022-12-18T01:13:57;61.30;;;30.87;;
10535;SDS011;5316;49.538;8.352;2022-12-18T01:16:24;57.43;;;30.47;;
10535;SDS011;5316;49.538;8.352;2022-12-18T01:18:51;64.97;;;31.33;;
10535;SDS011;5316;49.538;8.352;2022-12-18T01:21:22;65.03;;;32.27;;
10535;SDS011;5316;49.538;8.352;2022-12-18T01:23:52;64.60;;;29.73;;
10535;SDS011;5316;49.538;8.352;2022-12-18T01:26:31;62.33;;;31.17;;
10535;SDS011;5316;49.538;8.352;2022-12-18T01:28:59;64.73;;;30.03;;
10535;SDS011;5316;49.538;8.352;2022-12-18T01:31:27;63.00;;;31.40;;
10535;SDS011;5316;49.538;8.352;2022-12-18T01:33:56;57.90;;;29.47;;
10535;SDS011;5316;49.538;8.352;2022-12-18T01:36:23;61.40;;;29.73;;
10535;SDS011;5316;49.538;8.352;2022-12-18T01:38:52;57.47;;;28.00;;
10535;SDS011;5316;49.538;8.352;2022-12-18T01:41:19;57.97;;;28.93;;
10535;SDS011;5316;49.538;8.352;2022-12-18T01:43:50;60.67;;;29.53;;
10535;SDS011;5316;49.538;8.352;2022-12-18T01:46:20;60.60;;;29.40;;
10535;SDS011;5316;49.538;8.352;2022-12-18T01:48:48;56.77;;;28.27;;
10535;SDS011;5316;49.538;8.352;2022-12-18T01:51:19;58.87;;;28.43;;
10535;SDS011;5316;49.538;8.352;2022-12-18T01:53:47;57.90;;;28.30;;
10535;SDS011;5316;49.538;8.352;2022-12-18T01:56:15;59.73;;;29.30;;
10535;SDS011;5316;49.538;8.352;2022-12-18T01:58:48;52.77;;;26.43;;
10535;SDS011;5316;49.538;8.352;2022-12-18T02:01:24;51.80;;;26.07;;
10535;SDS011;5316;49.538;8.352;2022-12-18T02:03:52;54.97;;;26.93;;
10535;SDS011;5316;49.538;8.352;2022-12-18T02:06:21;54.30;;;24.83;;
10535;SDS011;5316;49.538;8.352;2022-12-18T02:09:01;53.23;;;25.57;;
10535;SDS011;5316;49.538;8.352;2022-12-18T02:11:39;49.13;;;25.80;;
10535;SDS011;5316;49.538;8.352;2022-12-18T02:14:16;51.80;;;25.13;;
10535;SDS011;5316;49.538;8.352;2022-12-18T02:16:50;53.63;;;25.80;;
10535;SDS011;5316;49.538;8.352;2022-12-18T02:19:37;56.20;;;26.80;;
10535;SDS011;5316;49.538;8.352;2022-12-18T02:22:20;51.13;;;25.43;;
10535;SDS011;5316;49.538;8.352;2022-12-18T02:25:00;54.10;;;27.10;;
10535;SDS011;5316;49.538;8.352;2022-12-18T02:27:40;59.87;;;27.57;;
10535;SDS011;5316;49.538;8.352;2022-12-18T02:30:10;56.00;;;26.90;;
10535;SDS011;5316;49.538;8.352;2022-12-18T02:32:39;59.10;;;28.67;;
10535;SDS011;5316;49.538;8.352;2022-12-18T02:35:13;55.73;;;27.40;;
10535;SDS011;5316;49.538;8.352;2022-12-18T02:37:43;53.77;;;26.80;;
10535;SDS011;5316;49.538;8.352;2022-12-18T02:40:13;56.03;;;27.60;;
10535;SDS011;5316;49.538;8.352;2022-12-18T02:42:47;58.70;;;27.93;;
10535;SDS011;5316;49.538;8.352;2022-12-18T02:45:15;58.47;;;28.27;;
10535;SDS011;5316;49.538;8.352;2022-12-18T02:47:43;60.27;;;26.83;;
10535;SDS011;5316;49.538;8.352;2022-12-18T02:50:16;59.37;;;28.90;;
10535;SDS011;5316;49.538;8.352;2022-12-18T02:52:49;63.17;;;28.73;;
10535;SDS011;5316;49.538;8.352;2022-12-18T02:55:28;60.27;;;29.40;;
10535;SDS011;5316;49.538;8.352;2022-12-18T02:58:05;59.23;;;28.87;;
10535;SDS011;5316;49.538;8.352;2022-12-18T03:00:39;69.07;;;30.67;;
10535;SDS011;5316;49.538;8.352;2022-12-18T03:03:11;68.90;;;30.80;;
10535;SDS011;5316;49.538;8.352;2022-12-18T03:05:47;65.10;;;31.93;;
10535;SDS011;5316;49.538;8.352;2022-12-18T03:08:18;64.37;;;30.80;;
10535;SDS011;5316;49.538;8.352;2022-12-18T03:10:49;68.93;;;31.60;;
10535;SDS011;5316;49.538;8.352;2022-12-18T03:13:23;64.33;;;30.47;;
10535;SDS011;5316;49.538;8.352;2022-12-18T03:15:54;64.93;;;30.33;;
10535;SDS011;5316;49.538;8.352;2022-12-18T03:18:23;65.03;;;30.50;;
10535;SDS011;5316;49.538;8.352;2022-12-18T03:20:55;61.20;;;30.33;;
10535;SDS011;5316;49.538;8.352;2022-12-18T03:23:27;62.67;;;29.03;;
10535;SDS011;5316;49.538;8.352;2022-12-18T03:25:57;62.60;;;29.43;;
10535;SDS011;5316;49.538;8.352;2022-12-18T03:28:29;64.53;;;31.23;;
10535;SDS011;5316;49.538;8.352;2022-12-18T03:31:01;61.80;;;30.77;;
10535;SDS011;5316;49.538;8.352;2022-12-18T03:33:34;61.13;;;29.67;;
10535;SDS011;5316;49.538;8.352;2022-12-18T03:36:05;64.67;;;29.43;;
10535;SDS011;5316;49.538;8.352;2022-12-18T03:38:32;66.37;;;29.37;;
10535;SDS011;5316;49.538;8.352;2022-12-18T03:40:59;69.00;;;30.13;;
10535;SDS011;5316;49.538;8.352;2022-12-18T03:43:37;61.33;;;28.90;;
10535;SDS011;5316;49.538;8.352;2022-12-18T03:46:12;63.30;;;28.83;;
10535;SDS011;5316;49.538;8.352;2022-12-18T03:48:46;64.47;;;30.00;;
10535;SDS011;5316;49.538;8.352;2022-12-18T03:51:22;67.30;;;30.17;;
10535;SDS011;5316;49.538;8.352;2022-12-18T03:53:55;64.40;;;30.10;;
10535;SDS011;5316;49.538;8.352;2022-12-18T03:56:26;63.37;;;29.20;;
10535;SDS011;5316;49.538;8.352;2022-12-18T03:58:58;67.13;;;28.90;;
10535;SDS011;5316;49.538;8.352;2022-12-18T04:01:28;56.23;;;27.23;;
10535;SDS011;5316;49.538;8.352;2022-12-18T04:03:58;68.53;;;30.60;;
10535;SDS011;5316;49.538;8.352;2022-12-18T04:06:26;58.03;;;28.50;;
10535;SDS011;5316;49.538;8.352;2022-12-18T04:08:54;61.57;;;28.07;;
10535;SDS011;5316;49.538;8.352;2022-12-18T04:11:23;61.80;;;29.13;;
10535;SDS011;5316;49.538;8.352;2022-12-18T04:13:50;68.97;;;29.87;;
10535;SDS011;5316;49.538;8.352;2022-12-18T04:16:23;57.17;;;28.23;;
10535;SDS011;5316;49.538;8.352;2022-12-18T04:18:49;63.77;;;28.87;;
10535;SDS011;5316;49.538;8.352;2022-12-18T04:21:17;61.70;;;28.97;;
10535;SDS011;5316;49.538;8.352;2022-12-18T04:23:44;65.87;;;30.53;;
10535;SDS011;5316;49.538;8.352;2022-12-18T04:26:11;62.87;;;28.90;;
10535;SDS011;5316;49.538;8.352;2022-12-18T04:28:38;62.70;;;28.40;;
10535;SDS011;5316;49.538;8.352;2022-12-18T04:31:04;55.77;;;27.17;;
10535;SDS011;5316;49.538;8.352;2022-12-18T04:33:33;70.57;;;27.00;;
10535;SDS011;5316;49.538;8.352;2022-12-18T04:35:59;72.70;;;27.33;;
10535;SDS011;5316;49.538;8.352;2022-12-18T04:38:26;57.40;;;27.73;;
10535;SDS011;5316;49.538;8.352;2022-12-18T04:40:53;60.00;;;27.43;;
10535;SDS011;5316;49.538;8.352;2022-12-18T04:43:20;61.57;;;28.37;;
10535;SDS011;5316;49.538;8.352;2022-12-18T04:45:47;60.10;;;26.73;;
10535;SDS011;5316;49.538;8.352;2022-12-18T04:48:15;54.57;;;26.80;;
10535;SDS011;5316;49.538;8.352;2022-12-18T04:50:43;60.67;;;27.80;;
10535;SDS011;5316;49.538;8.352;2022-12-18T04:53:10;62.07;;;29.97;;
10535;SDS011;5316;49.538;8.352;2022-12-18T04:55:37;65.90;;;30.40;;
10535;SDS011;5316;49.538;8.352;2022-12-18T04:58:04;64.37;;;29.83;;
10535;SDS011;5316;49.538;8.352;2022-12-18T05:00:31;68.50;;;31.13;;
10535;SDS011;5316;49.538;8.352;2022-12-18T05:03:01;63.53;;;31.80;;
10535;SDS011;5316;49.538;8.352;2022-12-18T05:05:28;61.67;;;30.27;;
10535;SDS011;5316;49.538;8.352;2022-12-18T05:07:56;62.33;;;31.40;;
10535;SDS011;5316;49.538;8.352;2022-12-18T05:10:23;60.73;;;29.73;;
10535;SDS011;5316;49.538;8.352;2022-12-18T05:12:50;64.20;;;30.13;;
10535;SDS011;5316;49.538;8.352;2022-12-18T05:15:27;65.40;;;30.60;;
10535;SDS011;5316;49.538;8.352;2022-12-18T05:17:55;57.47;;;29.97;;
10535;SDS011;5316;49.538;8.352;2022-12-18T05:20:23;59.70;;;29.17;;
10535;SDS011;5316;49.538;8.352;2022-12-18T05:22:53;56.90;;;29.13;;
10535;SDS011;5316;49.538;8.352;2022-12-18T05:25:22;59.33;;;30.67;;
10535;SDS011;5316;49.538;8.352;2022-12-18T05:27:49;64.47;;;29.17;;
10535;SDS011;5316;49.538;8.352;2022-12-18T05:30:16;60.97;;;29.83;;
10535;SDS011;5316;49.538;8.352;2022-12-18T05:32:44;65.63;;;29.93;;
10535;SDS011;5316;49.538;8.352;2022-12-18T05:35:13;59.47;;;28.93;;
10535;SDS011;5316;49.538;8.352;2022-12-18T05:37:40;64.00;;;30.07;;
10535;SDS011;5316;49.538;8.352;2022-12-18T05:40:08;66.10;;;28.67;;
10535;SDS011;5316;49.538;8.352;2022-12-18T05:42:42;69.80;;;30.80;;
10535;SDS011;5316;49.538;8.352;2022-12-18T05:45:10;61.43;;;29.23;;
10535;SDS011;5316;49.538;8.352;2022-12-18T05:47:39;62.50;;;29.03;;
10535;SDS011;5316;49.538;8.352;2022-12-18T05:50:07;61.37;;;28.37;;
10535;SDS011;5316;49.538;8.352;2022-12-18T05:52:34;64.90;;;29.00;;
10535;SDS011;5316;49.538;8.352;2022-12-18T05:55:01;66.33;;;28.50;;
10535;SDS011;5316;49.538;8.352;2022-12-18T05:57:31;70.83;;;28.23;;
10535;SDS011;5316;49.538;8.352;2022-12-18T05:59:59;64.67;;;27.10;;
10535;SDS011;5316;49.538;8.352;2022-12-18T06:02:26;100.17;;;27.13;;
10535;SDS011;5316;49.538;8.352;2022-12-18T06:04:54;66.90;;;26.57;;
10535;SDS011;5316;49.538;8.352;2022-12-18T06:07:21;100.40;;;27.93;;
10535;SDS011;5316;49.538;8.352;2022-12-18T06:09:48;73.50;;;26.97;;
10535;SDS011;5316;49.538;8.352;2022-12-18T06:12:17;64.07;;;28.10;;
10535;SDS011;5316;49.538;8.352;2022-12-18T06:14:44;65.50;;;28.93;;
10535;SDS011;5316;49.538;8.352;2022-12-18T06:17:12;63.80;;;27.83;;
10535;SDS011;5316;49.538;8.352;2022-12-18T06:19:39;69.13;;;27.93;;
10535;SDS011;5316;49.538;8.352;2022-12-18T06:22:06;103.23;;;28.13;;
10535;SDS011;5316;49.538;8.352;2022-12-18T06:24:34;78.17;;;29.40;;
10535;SDS011;5316;49.538;8.352;2022-12-18T06:27:01;65.83;;;28.40;;
10535;SDS011;5316;49.538;8.352;2022-12-18T06:29:28;64.97;;;28.40;;
10535;SDS011;5316;49.538;8.352;2022-12-18T06:31:54;128.30;;;29.97;;
10535;SDS011;5316;49.538;8.352;2022-12-18T06:34:23;64.50;;;28.63;;
10535;SDS011;5316;49.538;8.352;2022-12-18T06:36:50;70.40;;;29.20;;
10535;SDS011;5316;49.538;8.352;2022-12-18T06:39:17;83.47;;;30.23;;
10535;SDS011;5316;49.538;8.352;2022-12-18T06:41:43;67.30;;;29.03;;
10535;SDS011;5316;49.538;8.352;2022-12-18T06:44:10;74.03;;;28.17;;
10535;SDS011;5316;49.538;8.352;2022-12-18T06:46:38;126.90;;;30.97;;
10535;SDS011;5316;49.538;8.352;2022-12-18T06:49:05;137.57;;;30.77;;
10535;SDS011;5316;49.538;8.352;2022-12-18T06:51:35;94.67;;;30.77;;
10535;SDS011;5316;49.538;8.352;2022-12-18T06:54:03;71.77;;;30.17;;
10535;SDS011;5316;49.538;8.352;2022-12-18T06:56:30;73.17;;;31.93;;
10535;SDS011;5316;49.538;8.352;2022-12-18T06:58:57;76.40;;;30.40;;
10535;SDS011;5316;49.538;8.352;2022-12-18T07:01:24;70.90;;;30.40;;
10535;SDS011;5316;49.538;8.352;2022-12-18T07:03:51;67.43;;;29.77;;
10535;SDS011;5316;49.538;8.352;2022-12-18T07:06:20;217.67;;;47.03;;
10535;SDS011;5316;49.538;8.352;2022-12-18T07:08:50;152.47;;;42.43;;
10535;SDS011;5316;49.538;8.352;2022-12-18T07:11:18;74.47;;;31.03;;
10535;SDS011;5316;49.538;8.352;2022-12-18T07:13:45;67.53;;;30.40;;
10535;SDS011;5316;49.538;8.352;2022-12-18T07:16:14;68.17;;;30.50;;
10535;SDS011;5316;49.538;8.352;2022-12-18T07:18:42;67.17;;;29.77;;
10535;SDS011;5316;49.538;8.352;2022-12-18T07:21:11;74.27;;;30.33;;
10535;SDS011;5316;49.538;8.352;2022-12-18T07:23:39;68.97;;;29.80;;
10535;SDS011;5316;49.538;8.352;2022-12-18T07:26:09;66.27;;;30.53;;
10535;SDS011;5316;49.538;8.352;2022-12-18T07:28:38;62.73;;;28.43;;
10535;SDS011;5316;49.538;8.352;2022-12-18T07:31:07;62.73;;;28.73;;
10535;SDS011;5316;49.538;8.352;2022-12-18T07:33:35;73.33;;;31.37;;
10535;SDS011;5316;49.538;8.352;2022-12-18T07:36:03;69.73;;;31.30;;
10535;SDS011;5316;49.538;8.352;2022-12-18T07:38:33;73.70;;;31.57;;
10535;SDS011;5316;49.538;8.352;2022-12-18T07:41:00;67.80;;;29.30;;
10535;SDS011;5316;49.538;8.352;2022-12-18T07:43:30;64.73;;;30.10;;
10535;SDS011;5316;49.538;8.352;2022-12-18T07:45:57;69.17;;;31.67;;
10535;SDS011;5316;49.538;8.352;2022-12-18T07:48:25;62.47;;;29.03;;
10535;SDS011;5316;49.538;8.352;2022-12-18T07:50:53;62.73;;;28.00;;
10535;SDS011;5316;49.538;8.352;2022-12-18T07:53:23;63.00;;;29.17;;
10535;SDS011;5316;49.538;8.352;2022-12-18T07:55:54;69.70;;;29.33;;
10535;SDS011;5316;49.538;8.352;2022-12-18T07:58:23;68.83;;;28.50;;
10535;SDS011;5316;49.538;8.352;2022-12-18T08:00:51;84.30;;;30.87;;
10535;SDS011;5316;49.538;8.352;2022-12-18T08:03:19;67.43;;;29.33;;
10535;SDS011;5316;49.538;8.352;2022-12-18T08:05:46;69.03;;;29.17;;
10535;SDS011;5316;49.538;8.352;2022-12-18T08:08:15;69.20;;;30.23;;
10535;SDS011;5316;49.538;8.352;2022-12-18T08:10:42;69.00;;;29.73;;
10535;SDS011;5316;49.538;8.352;2022-12-18T08:13:09;74.57;;;31.23;;
10535;SDS011;5316;49.538;8.352;2022-12-18T08:15:37;71.77;;;31.23;;
10535;SDS011;5316;49.538;8.352;2022-12-18T08:18:09;63.33;;;29.70;;
10535;SDS011;5316;49.538;8.352;2022-12-18T08:20:35;68.43;;;30.03;;
10535;SDS011;5316;49.538;8.352;2022-12-18T08:23:02;67.73;;;31.47;;
10535;SDS011;5316;49.538;8.352;2022-12-18T08:25:30;63.93;;;29.70;;
10535;SDS011;5316;49.538;8.352;2022-12-18T08:27:56;62.07;;;28.83;;
10535;SDS011;5316;49.538;8.352;2022-12-18T08:30:24;61.10;;;29.77;;
10535;SDS011;5316;49.538;8.352;2022-12-18T08:32:51;57.47;;;28.30;;
10535;SDS011;5316;49.538;8.352;2022-12-18T08:35:20;61.77;;;29.73;;
10535;SDS011;5316;49.538;8.352;2022-12-18T08:37:48;62.87;;;29.27;;
10535;SDS011;5316;49.538;8.352;2022-12-18T08:40:15;65.03;;;31.37;;
10535;SDS011;5316;49.538;8.352;2022-12-18T08:42:42;55.90;;;27.97;;
10535;SDS011;5316;49.538;8.352;2022-12-18T08:45:26;56.07;;;27.83;;
10535;SDS011;5316;49.538;8.352;2022-12-18T08:47:54;57.27;;;27.67;;
10535;SDS011;5316;49.538;8.352;2022-12-18T08:50:22;54.27;;;27.53;;
10535;SDS011;5316;49.538;8.352;2022-12-18T08:52:49;49.47;;;25.37;;
10535;SDS011;5316;49.538;8.352;2022-12-18T08:55:17;49.67;;;24.53;;
10535;SDS011;5316;49.538;8.352;2022-12-18T08:57:47;49.27;;;25.47;;
10535;SDS011;5316;49.538;8.352;2022-12-18T09:00:15;52.90;;;26.90;;
10535;SDS011;5316;49.538;8.352;2022-12-18T09:02:42;53.70;;;27.07;;
10535;SDS011;5316;49.538;8.352;2022-12-18T09:05:09;52.83;;;26.73;;
10535;SDS011;5316;49.538;8.352;2022-12-18T09:07:38;53.70;;;26.67;;
10535;SDS011;5316;49.538;8.352;2022-12-18T09:10:05;55.37;;;27.00;;
10535;SDS011;5316;49.538;8.352;2022-12-18T09:12:32;53.50;;;26.13;;
10535;SDS011;5316;49.538;8.352;2022-12-18T09:14:59;55.37;;;26.83;;
10535;SDS011;5316;49.538;8.352;2022-12-18T09:17:26;53.27;;;27.53;;
10535;SDS011;5316;49.538;8.352;2022-12-18T09:19:52;53.43;;;26.40;;
10535;SDS011;5316;49.538;8.352;2022-12-18T09:22:19;52.13;;;26.27;;
10535;SDS011;5316;49.538;8.352;2022-12-18T09:24:47;45.90;;;24.93;;
10535;SDS011;5316;49.538;8.352;2022-12-18T09:27:15;50.37;;;26.60;;
10535;SDS011;5316;49.538;8.352;2022-12-18T09:29:41;51.00;;;25.63;;
10535;SDS011;5316;49.538;8.352;2022-12-18T09:32:08;63.50;;;32.43;;
10535;SDS011;5316;49.538;8.352;2022-12-18T09:34:35;52.17;;;27.60;;
10535;SDS011;5316;49.538;8.352;2022-12-18T09:37:01;52.07;;;27.83;;
10535;SDS011;5316;49.538;8.352;2022-12-18T09:39:28;56.50;;;27.93;;
10535;SDS011;5316;49.538;8.352;2022-12-18T09:41:57;57.30;;;28.27;;
10535;SDS011;5316;49.538;8.352;2022-12-18T09:44:25;62.03;;;28.77;;
10535;SDS011;5316;49.538;8.352;2022-12-18T09:47:05;62.00;;;29.90;;
10535;SDS011;5316;49.538;8.352;2022-12-18T09:49:37;67.60;;;32.97;;
10535;SDS011;5316;49.538;8.352;2022-12-18T09:52:09;62.90;;;30.87;;
10535;SDS011;5316;49.538;8.352;2022-12-18T09:54:40;61.03;;;30.00;;
10535;SDS011;5316;49.538;8.352;2022-12-18T09:57:12;60.33;;;30.23;;
10535;SDS011;5316;49.538;8.352;2022-12-18T09:59:41;61.07;;;29.50;;
10535;SDS011;5316;49.538;8.352;2022-12-18T10:02:17;63.43;;;31.07;;
10535;SDS011;5316;49.538;8.352;2022-12-18T10:04:48;63.53;;;30.53;;
10535;SDS011;5316;49.538;8.352;2022-12-18T10:07:28;61.83;;;29.60;;
10535;SDS011;5316;49.538;8.352;2022-12-18T10:10:02;66.07;;;30.23;;
10535;SDS011;5316;49.538;8.352;2022-12-18T10:12:37;66.03;;;32.57;;
10535;SDS011;5316;49.538;8.352;2022-12-18T10:15:10;67.33;;;33.43;;
10535;SDS011;5316;49.538;8.352;2022-12-18T10:17:46;64.70;;;32.07;;
10535;SDS011;5316;49.538;8.352;2022-12-18T10:20:20;65.87;;;32.30;;
10535;SDS011;5316;49.538;8.352;2022-12-18T10:22:52;63.70;;;31.30;;
10535;SDS011;5316;49.538;8.352;2022-12-18T10:25:27;66.87;;;31.77;;
10535;SDS011;5316;49.538;8.352;2022-12-18T10:28:06;65.43;;;31.40;;
10535;SDS011;5316;49.538;8.352;2022-12-18T10:30:37;59.63;;;30.20;;
10535;SDS011;5316;49.538;8.352;2022-12-18T10:33:05;63.43;;;31.00;;
10535;SDS011;5316;49.538;8.352;2022-12-18T10:35:33;65.10;;;32.07;;
10535;SDS011;5316;49.538;8.352;2022-12-18T10:38:04;65.20;;;31.23;;
10535;SDS011;5316;49.538;8.352;2022-12-18T10:40:33;66.80;;;31.73;;
10535;SDS011;5316;49.538;8.352;2022-12-18T10:43:23;62.23;;;31.30;;
10535;SDS011;5316;49.538;8.352;2022-12-18T10:45:59;60.30;;;29.83;;
10535;SDS011;5316;49.538;8.352;2022-12-18T10:48:28;59.13;;;29.93;;
10535;SDS011;5316;49.538;8.352;2022-12-18T10:50:57;61.97;;;30.20;;
10535;SDS011;5316;49.538;8.352;2022-12-18T10:53:26;57.53;;;28.70;;
10535;SDS011;5316;49.538;8.352;2022-12-18T10:55:55;55.30;;;27.93;;
10535;SDS011;5316;49.538;8.352;2022-12-18T10:58:26;58.30;;;29.83;;
10535;SDS011;5316;49.538;8.352;2022-12-18T11:01:07;60.87;;;29.83;;
10535;SDS011;5316;49.538;8.352;2022-12-18T11:03:37;60.17;;;29.07;;
10535;SDS011;5316;49.538;8.352;2022-12-18T11:06:07;58.77;;;28.77;;
10535;SDS011;5316;49.538;8.352;2022-12-18T11:08:35;61.03;;;30.43;;
10535;SDS011;5316;49.538;8.352;2022-12-18T11:11:02;67.70;;;31.27;;
10535;SDS011;5316;49.538;8.352;2022-12-18T11:13:35;60.60;;;31.23;;
10535;SDS011;5316;49.538;8.352;2022-12-18T11:16:01;57.77;;;30.47;;
10535;SDS011;5316;49.538;8.352;2022-12-18T11:18:29;56.60;;;29.73;;
10535;SDS011;5316;49.538;8.352;2022-12-18T11:20:59;59.03;;;31.13;;
10535;SDS011;5316;49.538;8.352;2022-12-18T11:23:32;57.13;;;29.93;;
10535;SDS011;5316;49.538;8.352;2022-12-18T11:26:00;56.27;;;29.43;;
10535;SDS011;5316;49.538;8.352;2022-12-18T11:28:35;57.80;;;30.63;;
10535;SDS011;5316;49.538;8.352;2022-12-18T11:31:16;57.03;;;29.50;;
10535;SDS011;5316;49.538;8.352;2022-12-18T11:33:50;54.17;;;29.67;;
10535;SDS011;5316;49.538;8.352;2022-12-18T11:36:31;55.93;;;30.10;;
10535;SDS011;5316;49.538;8.352;2022-12-18T11:39:02;57.40;;;30.27;;
10535;SDS011;5316;49.538;8.352;2022-12-18T11:41:37;55.67;;;30.27;;
10535;SDS011;5316;49.538;8.352;2022-12-18T11:44:31;56.73;;;29.30;;
10535;SDS011;5316;49.538;8.352;2022-12-18T11:47:05;57.37;;;30.20;;
10535;SDS011;5316;49.538;8.352;2022-12-18T11:49:39;55.30;;;30.50;;
10535;SDS011;5316;49.538;8.352;2022-12-18T11:52:09;54.17;;;30.00;;
10535;SDS011;5316;49.538;8.352;2022-12-18T11:54:42;60.50;;;30.80;;
10535;SDS011;5316;49.538;8.352;2022-12-18T11:57:10;59.33;;;30.53;;
10535;SDS011;5316;49.538;8.352;2022-12-18T11:59:49;55.00;;;30.13;;
10535;SDS011;5316;49.538;8.352;2022-12-18T12:02:30;57.63;;;30.00;;
10535;SDS011;5316;49.538;8.352;2022-12-18T12:05:17;59.33;;;30.63;;
10535;SDS011;5316;49.538;8.352;2022-12-18T12:07:55;57.07;;;31.67;;
10535;SDS011;5316;49.538;8.352;2022-12-18T12:10:32;54.73;;;30.43;;
10535;SDS011;5316;49.538;8.352;2022-12-18T12:13:19;60.93;;;31.07;;
10535;SDS011;5316;49.538;8.352;2022-12-18T12:15:58;63.97;;;31.33;;
10535;SDS011;5316;49.538;8.352;2022-12-18T12:18:36;60.03;;;31.33;;
10535;SDS011;5316;49.538;8.352;2022-12-18T12:21:15;63.47;;;31.97;;
10535;SDS011;5316;49.538;8.352;2022-12-18T12:23:49;62.80;;;32.43;;
10535;SDS011;5316;49.538;8.352;2022-12-18T12:26:25;59.03;;;31.90;;
10535;SDS011;5316;49.538;8.352;2022-12-18T12:29:00;58.37;;;30.30;;
10535;SDS011;5316;49.538;8.352;2022-12-18T12:31:43;63.67;;;31.50;;
10535;SDS011;5316;49.538;8.352;2022-12-18T12:34:22;59.17;;;31.90;;
10535;SDS011;5316;49.538;8.352;2022-12-18T12:37:00;59.00;;;31.53;;
10535;SDS011;5316;49.538;8.352;2022-12-18T12:39:38;65.17;;;33.00;;
10535;SDS011;5316;49.538;8.352;2022-12-18T12:42:12;61.80;;;32.50;;
10535;SDS011;5316;49.538;8.352;2022-12-18T12:45:03;62.10;;;32.17;;
10535;SDS011;5316;49.538;8.352;2022-12-18T12:47:35;66.20;;;34.00;;
10535;SDS011;5316;49.538;8.352;2022-12-18T12:50:12;64.23;;;33.03;;
10535;SDS011;5316;49.538;8.352;2022-12-18T12:52:42;63.60;;;33.40;;
10535;SDS011;5316;49.538;8.352;2022-12-18T12:55:13;65.80;;;33.53;;
10535;SDS011;5316;49.538;8.352;2022-12-18T12:57:43;64.03;;;33.70;;
10535;SDS011;5316;49.538;8.352;2022-12-18T13:00:18;62.73;;;32.63;;
10535;SDS011;5316;49.538;8.352;2022-12-18T13:02:48;61.83;;;34.03;;
10535;SDS011;5316;49.538;8.352;2022-12-18T13:05:23;64.30;;;34.13;;
10535;SDS011;5316;49.538;8.352;2022-12-18T13:07:56;61.03;;;33.93;;
10535;SDS011;5316;49.538;8.352;2022-12-18T13:10:33;62.07;;;32.83;;
10535;SDS011;5316;49.538;8.352;2022-12-18T13:13:02;69.63;;;35.77;;
10535;SDS011;5316;49.538;8.352;2022-12-18T13:15:31;65.43;;;35.43;;
10535;SDS011;5316;49.538;8.352;2022-12-18T13:18:14;65.00;;;34.77;;
10535;SDS011;5316;49.538;8.352;2022-12-18T13:20:46;69.23;;;34.93;;
10535;SDS011;5316;49.538;8.352;2022-12-18T13:23:19;63.70;;;34.13;;
10535;SDS011;5316;49.538;8.352;2022-12-18T13:25:52;64.33;;;33.80;;
10535;SDS011;5316;49.538;8.352;2022-12-18T13:28:20;64.10;;;33.43;;
10535;SDS011;5316;49.538;8.352;2022-12-18T13:30:53;59.27;;;34.10;;
10535;SDS011;5316;49.538;8.352;2022-12-18T13:36:35;66.67;;;33.87;;
10535;SDS011;5316;49.538;8.352;2022-12-18T13:39:23;64.63;;;33.43;;
10535;SDS011;5316;49.538;8.352;2022-12-18T13:45:37;63.90;;;33.90;;
10535;SDS011;5316;49.538;8.352;2022-12-18T13:48:12;61.70;;;33.37;;
10535;SDS011;5316;49.538;8.352;2022-12-18T13:50:49;68.00;;;36.03;;
10535;SDS011;5316;49.538;8.352;2022-12-18T13:53:23;68.30;;;36.13;;
10535;SDS011;5316;49.538;8.352;2022-12-18T13:55:54;68.47;;;36.37;;
10535;SDS011;5316;49.538;8.352;2022-12-18T13:58:21;67.67;;;36.13;;
10535;SDS011;5316;49.538;8.352;2022-12-18T14:00:48;67.77;;;35.60;;
10535;SDS011;5316;49.538;8.352;2022-12-18T14:03:16;64.10;;;33.93;;
10535;SDS011;5316;49.538;8.352;2022-12-18T14:05:45;68.03;;;34.93;;
10535;SDS011;5316;49.538;8.352;2022-12-18T14:08:20;63.90;;;35.47;;
10535;SDS011;5316;49.538;8.352;2022-12-18T14:10:48;64.80;;;34.73;;
10535;SDS011;5316;49.538;8.352;2022-12-18T14:13:19;64.07;;;35.27;;
10535;SDS011;5316;49.538;8.352;2022-12-18T14:15:50;66.37;;;35.50;;
10535;SDS011;5316;49.538;8.352;2022-12-18T14:18:19;71.70;;;35.80;;
10535;SDS011;5316;49.538;8.352;2022-12-18T14:20:49;63.33;;;35.13;;
10535;SDS011;5316;49.538;8.352;2022-12-18T14:29:20;68.33;;;35.47;;
10535;SDS011;5316;49.538;8.352;2022-12-18T14:32:09;68.87;;;35.27;;
10535;SDS011;5316;49.538;8.352;2022-12-18T14:34:39;64.23;;;34.40;;
10535;SDS011;5316;49.538;8.352;2022-12-18T14:37:10;66.93;;;34.93;;
10535;SDS011;5316;49.538;8.352;2022-12-18T14:39:37;70.57;;;36.23;;
10535;SDS011;5316;49.538;8.352;2022-12-18T14:42:05;66.23;;;35.13;;
10535;SDS011;5316;49.538;8.352;2022-12-18T14:44:41;67.13;;;35.90;;
10535;SDS011;5316;49.538;8.352;2022-12-18T14:47:12;68.50;;;35.10;;
10535;SDS011;5316;49.538;8.352;2022-12-18T14:49:42;68.77;;;36.03;;
10535;SDS011;5316;49.538;8.352;2022-12-18T14:52:18;66.60;;;35.93;;
10535;SDS011;5316;49.538;8.352;2022-12-18T14:54:50;68.40;;;35.67;;
10535;SDS011;5316;49.538;8.352;2022-12-18T14:57:23;64.93;;;36.87;;
10535;SDS011;5316;49.538;8.352;2022-12-18T14:59:53;61.30;;;33.63;;
10535;SDS011;5316;49.538;8.352;2022-12-18T15:02:34;65.73;;;34.83;;
10535;SDS011;5316;49.538;8.352;2022-12-18T15:05:04;65.83;;;34.73;;
10535;SDS011;5316;49.538;8.352;2022-12-18T15:07:53;63.07;;;35.70;;
10535;SDS011;5316;49.538;8.352;2022-12-18T15:28:51;61.23;;;34.07;;
10535;SDS011;5316;49.538;8.352;2022-12-18T15:43:37;61.63;;;34.17;;
10535;SDS011;5316;49.538;8.352;2022-12-18T15:46:19;66.50;;;35.63;;
10535;SDS011;5316;49.538;8.352;2022-12-18T15:48:52;66.93;;;35.90;;
10535;SDS011;5316;49.538;8.352;2022-12-18T15:52:04;63.60;;;34.17;;
10535;SDS011;5316;49.538;8.352;2022-12-18T15:54:54;60.07;;;34.73;;